Time,TemperatureF,DewpointF,PressureIn,WindDirection,WindDirectionDegrees,WindSpeedMPH,WindSpeedGustMPH,Humidity,HourlyPrecipIn,Conditions,Clouds,dailyrainin,SoftwareType,DateUTC
2013-01-04 00:03:00,59.0,-99.9,30.16,NE,52,10.0,16.0,-999,-99.99,,,-99.99,,2013-01-04 05:03:00,
2013-01-04 00:12:00,60.0,-99.9,30.17,NE,44,7.0,14.0,-999,-99.99,,,-99.99,,2013-01-04 05:12:00,
2013-01-04 00:22:00,59.0,-99.9,30.17,NE,56,9.0,12.0,-999,-99.99,,,-99.99,,2013-01-04 05:22:00,
2013-01-04 00:33:00,59.0,-99.9,30.17,NE,46,8.0,11.0,-999,-99.99,,,-99.99,,2013-01-04 05:33:00,
2013-01-04 00:43:00,59.0,-99.9,30.16,NE,42,10.0,14.0,-999,-99.99,,,-99.99,,2013-01-04 05:43:00,
2013-01-04 00:53:00,59.0,-99.9,30.17,NNE,23,9.0,11.0,-999,-99.99,,,-99.99,,2013-01-04 05:53:00,
2013-01-04 01:02:00,59.0,-99.9,30.17,NNE,14,12.0,13.0,-999,-99.99,,,-99.99,,2013-01-04 06:02:00,
2013-01-04 01:12:00,59.0,-99.9,30.18,NNE,20,14.0,16.0,-999,-99.99,,,-99.99,,2013-01-04 06:12:00,
2013-01-04 01:22:00,59.0,-99.9,30.18,NNE,25,13.0,16.0,-999,-99.99,,,-99.99,,2013-01-04 06:22:00,
2013-01-04 01:33:00,59.0,-99.9,30.17,NNE,25,13.0,15.0,-999,-99.99,,,-99.99,,2013-01-04 06:33:00,
2013-01-04 01:43:00,59.0,-99.9,30.17,NNE,24,15.0,17.0,-999,-99.99,,,-99.99,,2013-01-04 06:43:00,
2013-01-04 01:53:00,59.0,-99.9,30.17,NNE,20,13.0,15.0,-999,-99.99,,,-99.99,,2013-01-04 06:53:00,
2013-01-04 02:02:00,59.0,-99.9,30.17,NNE,25,13.0,17.0,-999,-99.99,,,-99.99,,2013-01-04 07:02:00,
2013-01-04 02:12:00,58.0,-99.9,30.17,NNE,26,15.0,18.0,-999,-99.99,,,-99.99,,2013-01-04 07:12:00,
2013-01-04 02:22:00,58.0,-99.9,30.17,NNE,22,15.0,19.0,-999,-99.99,,,-99.99,,2013-01-04 07:22:00,
2013-01-04 02:32:00,58.0,-99.9,30.17,NNE,21,14.0,18.0,-999,-99.99,,,-99.99,,2013-01-04 07:32:00,
2013-01-04 02:43:00,58.0,-99.9,30.17,NNE,27,12.0,17.0,-999,-99.99,,,-99.99,,2013-01-04 07:43:00,
2013-01-04 02:52:00,58.0,-99.9,30.17,NNE,25,14.0,18.0,-999,-99.99,,,-99.99,,2013-01-04 07:52:00,
2013-01-04 03:03:00,58.0,-99.9,30.16,NNE,24,14.0,16.0,-999,-99.99,,,-99.99,,2013-01-04 08:03:00,
2013-01-04 03:12:00,58.0,-99.9,30.16,NNE,26,14.0,16.0,-999,-99.99,,,-99.99,,2013-01-04 08:12:00,
2013-01-04 03:23:00,58.0,-99.9,30.16,NNE,33,12.0,16.0,-999,-99.99,,,-99.99,,2013-01-04 08:23:00,
2013-01-04 03:33:00,58.0,-99.9,30.16,NNE,33,15.0,17.0,-999,-99.99,,,-99.99,,2013-01-04 08:33:00,
2013-01-04 03:43:00,58.0,-99.9,30.16,NE,41,14.0,17.0,-999,-99.99,,,-99.99,,2013-01-04 08:43:00,
2013-01-04 03:53:00,58.0,-99.9,30.16,ENE,62,8.0,13.0,-999,-99.99,,,-99.99,,2013-01-04 08:53:00,
2013-01-04 04:02:00,58.0,-99.9,30.16,ENE,59,7.0,11.0,-999,-99.99,,,-99.99,,2013-01-04 09:02:00,